Time;durP1;ratioP1;P1;durP2;ratioP2;P2;SDS_P1;SDS_P2;PMS_P1;PMS_P2;Temp;Humidity;BMP_temperature;BMP_pressure;BME280_temperature;BME280_humidity;BME280_pressure;Samples;Min_cycle;Max_cycle;Signal;HPM_P1;HPM_P2
2022/02/10 00:04:01;;;;;;;15.10;10.97;;;7.90;99.90;;;;;;5051618;28;20401;-71
2022/02/10 00:06:59;;;;;;;14.33;10.03;;;7.90;99.90;;;;;;5052219;28;20449;-70
2022/02/10 00:17:58;;;;;;;12.47;9.27;;;8.00;99.90;;;;;;5052729;28;20447;-69
2022/02/10 00:20:32;;;;;;;13.00;10.30;;;7.90;99.90;;;;;;5051893;28;20806;-71
2022/02/10 00:26:11;;;;;;;14.50;10.40;;;7.70;99.90;;;;;;5052684;28;20417;-70
2022/02/10 00:34:13;;;;;;;13.73;10.03;;;7.80;99.90;;;;;;5052512;28;20417;-70
2022/02/10 00:34:13;;;;;;;11.50;9.23;;;7.80;99.90;;;;;;5052858;28;20403;-70
2022/02/10 00:36:42;;;;;;;12.47;9.77;;;7.80;99.90;;;;;;5052538;28;20464;-71
2022/02/10 00:39:33;;;;;;;12.93;10.60;;;7.90;99.90;;;;;;5052543;28;20442;-71
2022/02/10 00:41:59;;;;;;;12.47;9.70;;;7.90;99.90;;;;;;5034858;28;20416;-70
2022/02/10 00:44:24;;;;;;;11.00;9.80;;;7.90;99.90;;;;;;5052480;28;20424;-71
2022/02/10 00:46:50;;;;;;;12.67;9.07;;;7.80;99.90;;;;;;5050259;28;20204;-70
2022/02/10 00:49:15;;;;;;;12.90;10.27;;;7.70;99.90;;;;;;5051411;28;20225;-71
2022/02/10 00:51:41;;;;;;;13.97;11.03;;;7.60;99.90;;;;;;5052790;28;20174;-70
2022/02/10 00:54:07;;;;;;;12.07;9.87;;;7.60;99.90;;;;;;5052759;28;20272;-70
2022/02/10 00:56:33;;;;;;;13.53;10.53;;;7.60;99.90;;;;;;5051942;28;20509;-71
2022/02/10 00:59:14;;;;;;;12.30;10.00;;;7.60;99.90;;;;;;5052187;28;20241;-70
2022/02/10 01:10:26;;;;;;;15.47;10.57;;;7.60;99.90;;;;;;5032160;28;20476;-70
2022/02/10 01:12:54;;;;;;;12.20;10.60;;;7.50;99.90;;;;;;5052314;28;20417;-70
2022/02/10 01:31:41;;;;;;;14.47;12.73;;;7.30;99.90;;;;;;5051679;28;20416;-70
2022/02/10 01:34:07;;;;;;;17.07;11.77;;;7.20;99.90;;;;;;5052098;28;20409;-69
2022/02/10 01:36:32;;;;;;;20.80;12.53;;;7.10;99.90;;;;;;5051751;28;20428;-69
2022/02/10 01:38:58;;;;;;;18.40;13.23;;;6.90;99.90;;;;;;5051730;28;20417;-70
2022/02/10 02:03:43;;;;;;;15.97;12.40;;;6.60;99.90;;;;;;5048158;28;20439;-70
2022/02/10 02:06:13;;;;;;;16.50;12.10;;;6.60;99.90;;;;;;5050784;28;20518;-70
2022/02/10 02:08:40;;;;;;;15.27;11.67;;;6.70;99.90;;;;;;5051395;28;20213;-70
2022/02/10 02:11:06;;;;;;;15.60;11.67;;;6.80;99.90;;;;;;5051268;28;20440;-70
2022/02/10 02:13:33;;;;;;;14.73;11.33;;;6.80;99.90;;;;;;5051045;28;20920;-70
2022/02/10 02:15:59;;;;;;;15.70;12.27;;;6.70;99.90;;;;;;5042048;28;20463;-70
2022/02/10 02:18:26;;;;;;;16.67;11.50;;;6.70;99.90;;;;;;5051107;28;20433;-70
2022/02/10 02:20:53;;;;;;;17.17;12.30;;;6.70;99.90;;;;;;5051400;28;20401;-70
2022/02/10 02:23:22;;;;;;;13.90;11.10;;;6.70;99.90;;;;;;5051175;28;20420;-70
2022/02/10 02:25:53;;;;;;;19.80;12.80;;;6.70;99.90;;;;;;5050595;28;20765;-70
2022/02/10 02:28:19;;;;;;;16.47;12.30;;;6.60;99.90;;;;;;5051097;28;20874;-69
2022/02/10 02:30:56;;;;;;;14.17;11.20;;;6.60;99.90;;;;;;5055706;28;20404;-69
2022/02/10 03:06:18;;;;;;;19.47;11.97;;;7.00;99.90;;;;;;5055041;28;20390;-69
2022/02/10 03:08:49;;;;;;;14.13;11.50;;;7.10;99.90;;;;;;5054927;28;20444;-68
2022/02/10 03:11:17;;;;;;;15.13;12.27;;;7.20;99.90;;;;;;5055824;28;20451;-69
2022/02/10 03:13:49;;;;;;;14.10;10.60;;;7.30;99.90;;;;;;5054843;28;20447;-69
2022/02/10 03:21:48;;;;;;;13.30;10.10;;;7.20;99.90;;;;;;5056109;28;20956;-68
2022/02/10 04:00:19;;;;;;;15.00;10.97;;;7.00;99.90;;;;;;5074292;28;20414;-69
2022/02/10 04:15:57;;;;;;;14.00;10.80;;;6.70;99.90;;;;;;5071851;28;20873;-69
2022/02/10 04:18:59;;;;;;;15.40;11.07;;;6.60;99.90;;;;;;5074171;28;20384;-69
2022/02/10 04:27:03;;;;;;;13.53;11.27;;;6.40;99.90;;;;;;5053390;28;20425;-69
2022/02/10 04:38:18;;;;;;;14.87;11.10;;;6.30;99.90;;;;;;5053050;28;20458;-67
2022/02/10 05:00:21;;;;;;;15.63;13.23;;;6.20;99.90;;;;;;5068223;28;20762;-68
2022/02/10 05:02:36;;;;;;;14.83;11.13;;;6.30;99.90;;;;;;5054661;28;20436;-68
2022/02/10 05:21:11;;;;;;;11.43;9.73;;;6.60;99.90;;;;;;5057846;28;20897;-68
2022/02/10 05:32:20;;;;;;;10.50;9.40;;;6.70;99.90;;;;;;5072664;28;20430;-68
2022/02/10 05:35:06;;;;;;;10.07;9.07;;;6.90;99.90;;;;;;5071987;28;20425;-68
2022/02/10 05:37:35;;;;;;;13.53;8.53;;;7.00;99.90;;;;;;5072146;28;20871;-68
2022/02/10 05:40:05;;;;;;;13.90;8.13;;;7.00;99.90;;;;;;5070782;28;20424;-68
2022/02/10 05:45:28;;;;;;;11.40;8.50;;;6.90;99.90;;;;;;5072580;28;20551;-68
2022/02/10 05:48:11;;;;;;;9.27;8.27;;;6.80;99.90;;;;;;5054513;28;20463;-68
2022/02/10 05:51:15;;;;;;;10.30;8.57;;;6.70;99.90;;;;;;5070859;28;20430;-68
2022/02/10 05:59:29;;;;;;;15.27;8.40;;;6.80;99.90;;;;;;5012272;28;20489;-69
2022/02/10 07:09:34;;;;;;;9.13;8.00;;;8.00;99.90;;;;;;5070361;28;20523;-67
2022/02/10 07:12:34;;;;;;;12.07;10.03;;;8.00;99.90;;;;;;5084197;28;20456;-69
2022/02/10 07:43:21;;;;;;;10.83;9.23;;;7.90;99.90;;;;;;5077893;28;20450;-69
2022/02/10 07:48:30;;;;;;;9.30;8.27;;;7.90;99.90;;;;;;5041396;28;20520;-69
2022/02/10 07:51:30;;;;;;;13.70;9.33;;;8.00;99.90;;;;;;5045964;28;20908;-69
2022/02/10 08:26:05;;;;;;;11.30;8.90;;;7.80;99.90;;;;;;5046958;28;20487;-68
2022/02/10 09:10:33;;;;;;;16.03;11.87;;;8.20;99.90;;;;;;5022196;28;20465;-68
2022/02/10 09:13:18;;;;;;;18.33;11.87;;;8.10;99.90;;;;;;5053058;28;20883;-69
2022/02/10 09:16:10;;;;;;;14.23;12.00;;;8.10;99.90;;;;;;5053542;28;20419;-70
2022/02/10 09:18:51;;;;;;;20.07;11.70;;;8.20;99.90;;;;;;5053347;28;20415;-69
2022/02/10 09:25:19;;;;;;;15.80;11.50;;;8.30;99.90;;;;;;5053065;28;20442;-69
2022/02/10 09:57:09;;;;;;;15.20;12.00;;;8.50;99.90;;;;;;5020306;28;20414;-68
2022/02/10 10:00:03;;;;;;;14.80;11.27;;;8.50;99.90;;;;;;5013265;28;20435;-68
2022/02/10 10:02:35;;;;;;;15.53;11.40;;;8.40;99.90;;;;;;5026713;28;20445;-69
2022/02/10 10:05:14;;;;;;;14.70;11.27;;;8.40;99.90;;;;;;5033895;28;20771;-69
2022/02/10 10:08:10;;;;;;;14.30;11.50;;;8.50;99.90;;;;;;5030025;28;20453;-69
2022/02/10 10:13:37;;;;;;;17.13;11.70;;;8.50;99.90;;;;;;5028597;28;20425;-68
2022/02/10 10:19:39;;;;;;;17.23;11.30;;;8.60;99.90;;;;;;5009941;28;20423;-68
2022/02/10 10:49:53;;;;;;;16.70;13.80;;;8.40;99.90;;;;;;5036916;28;20436;-68
2022/02/10 10:57:22;;;;;;;18.13;14.40;;;8.30;99.90;;;;;;5044379;28;20210;-67
2022/02/10 11:26:21;;;;;;;13.73;12.20;;;8.50;99.90;;;;;;5054411;28;20419;-70
2022/02/10 11:36:25;;;;;;;16.50;13.40;;;8.40;99.90;;;;;;5032597;28;20457;-69
2022/02/10 11:36:40;;;;;;;14.10;12.70;;;8.20;99.90;;;;;;5054625;28;20423;-68
2022/02/10 11:41:53;;;;;;;13.20;11.73;;;8.10;99.90;;;;;;5053407;28;20921;-69
2022/02/10 12:00:01;;;;;;;11.50;10.30;;;8.10;99.90;;;;;;5038936;28;20449;-69
2022/02/10 13:02:47;;;;;;;15.40;13.00;;;8.40;99.90;;;;;;4955517;29;20451;-69
2022/02/10 13:26:43;;;;;;;14.43;12.63;;;8.00;99.90;;;;;;5035575;28;20422;-68
2022/02/10 14:14:52;;;;;;;11.77;9.10;;;8.80;99.90;;;;;;5054576;28;20490;-68
2022/02/10 14:17:30;;;;;;;11.73;10.10;;;8.80;99.90;;;;;;5053586;28;20412;-69
2022/02/10 14:20:00;;;;;;;11.33;9.80;;;8.80;99.90;;;;;;5053710;28;20397;-68
2022/02/10 14:22:39;;;;;;;12.90;9.97;;;8.90;99.90;;;;;;5052839;28;20523;-69
2022/02/10 14:27:50;;;;;;;14.07;10.27;;;9.10;99.90;;;;;;5057545;28;20550;-69
2022/02/10 14:30:16;;;;;;;12.00;10.47;;;9.00;99.90;;;;;;5039875;28;20437;-69
2022/02/10 14:32:45;;;;;;;13.60;10.37;;;9.00;99.90;;;;;;5039170;28;20233;-69
2022/02/10 14:35:25;;;;;;;12.67;9.70;;;9.10;99.90;;;;;;5056901;28;20405;-69
2022/02/10 14:40:56;;;;;;;12.00;9.70;;;9.20;99.90;;;;;;5056693;28;20413;-70
2022/02/10 15:16:34;;;;;;;12.27;9.33;;;9.00;99.90;;;;;;5035417;28;20847;-70
2022/02/10 15:21:53;;;;;;;11.90;9.43;;;8.80;99.90;;;;;;5034757;28;20415;-69
2022/02/10 15:31:17;;;;;;;10.93;8.47;;;8.90;99.90;;;;;;5034902;28;21006;-70
2022/02/10 15:51:38;;;;;;;11.07;8.67;;;8.70;99.90;;;;;;5036295;28;20903;-69
2022/02/10 15:56:52;;;;;;;10.97;9.10;;;8.80;99.90;;;;;;5034821;28;20409;-69
2022/02/10 16:18:47;;;;;;;14.60;11.50;;;8.60;99.90;;;;;;5073566;28;20458;-69
2022/02/10 16:21:15;;;;;;;16.93;12.90;;;8.70;99.90;;;;;;5053767;28;20457;-69
2022/02/10 16:23:41;;;;;;;13.90;11.23;;;8.60;99.90;;;;;;5072963;28;20918;-69
2022/02/10 16:26:11;;;;;;;13.20;9.97;;;8.50;99.90;;;;;;5073308;28;20410;-68
2022/02/10 16:28:40;;;;;;;14.43;11.57;;;8.50;99.90;;;;;;5051644;28;20691;-70
2022/02/10 16:31:08;;;;;;;13.77;9.80;;;8.50;99.90;;;;;;5040858;28;20444;-69
2022/02/10 16:33:34;;;;;;;13.43;9.30;;;8.50;99.90;;;;;;5028974;28;20977;-69
2022/02/10 16:36:02;;;;;;;13.97;8.80;;;8.50;99.90;;;;;;5043038;28;20416;-70
2022/02/10 16:38:28;;;;;;;11.80;8.23;;;8.60;99.90;;;;;;5052797;28;20850;-69
2022/02/10 16:40:57;;;;;;;14.30;9.60;;;8.60;99.90;;;;;;5070626;28;20773;-69
2022/02/10 16:43:23;;;;;;;9.80;8.73;;;8.60;99.90;;;;;;5069646;28;20419;-69
2022/02/10 16:45:49;;;;;;;10.20;8.40;;;8.50;99.90;;;;;;5069875;28;20459;-69
2022/02/10 16:48:15;;;;;;;11.30;8.00;;;8.50;99.90;;;;;;5049098;28;20858;-69
2022/02/10 16:50:44;;;;;;;10.57;9.23;;;8.50;99.90;;;;;;5058278;28;20186;-69
2022/02/10 16:53:16;;;;;;;13.33;9.90;;;8.50;99.90;;;;;;5049543;28;20200;-69
2022/02/10 16:55:51;;;;;;;12.93;10.50;;;8.50;99.90;;;;;;5049660;28;20438;-68
2022/02/10 16:58:31;;;;;;;15.67;9.87;;;8.50;99.90;;;;;;5049593;28;20419;-69
2022/02/10 17:01:17;;;;;;;15.80;10.57;;;8.50;99.90;;;;;;5032366;28;20460;-69
2022/02/10 17:15:08;;;;;;;14.17;8.53;;;8.40;99.90;;;;;;5046965;28;20579;-69
2022/02/10 17:25:22;;;;;;;10.70;8.23;;;8.00;99.90;;;;;;5043428;28;20498;-69
2022/02/10 17:27:54;;;;;;;9.90;8.60;;;8.00;99.90;;;;;;5046046;28;20469;-69
2022/02/10 17:33:27;;;;;;;13.00;8.80;;;8.20;99.90;;;;;;5049928;28;20431;-69
2022/02/10 17:41:33;;;;;;;13.87;10.40;;;8.10;99.90;;;;;;5049134;28;20586;-69
2022/02/10 17:44:07;;;;;;;11.23;8.57;;;8.10;99.90;;;;;;5047985;28;20433;-69
2022/02/10 17:46:52;;;;;;;12.77;9.27;;;8.10;99.90;;;;;;5047089;28;20445;-69
2022/02/10 17:52:18;;;;;;;9.80;8.00;;;8.10;99.90;;;;;;5049845;28;20423;-70
2022/02/10 17:54:45;;;;;;;9.00;7.17;;;8.00;99.90;;;;;;5039888;28;20474;-70
2022/02/10 17:57:12;;;;;;;10.67;8.30;;;8.10;99.90;;;;;;5055176;28;20500;-70
2022/02/10 17:59:38;;;;;;;12.60;9.13;;;8.10;99.90;;;;;;5047933;28;20431;-70
2022/02/10 18:02:04;;;;;;;13.23;9.03;;;8.10;99.90;;;;;;5049737;28;21049;-69
2022/02/10 18:04:30;;;;;;;12.17;8.40;;;8.10;99.90;;;;;;5050074;28;21179;-70
2022/02/10 18:06:58;;;;;;;11.17;8.20;;;8.10;99.90;;;;;;5049092;28;20409;-69
2022/02/10 18:17:00;;;;;;;15.63;9.60;;;8.00;99.90;;;;;;5047495;28;20556;-69
2022/02/10 18:19:30;;;;;;;15.20;8.63;;;8.10;99.90;;;;;;5060043;28;20440;-69
2022/02/10 18:27:14;;;;;;;8.93;6.93;;;8.10;99.90;;;;;;5039719;28;20446;-70
2022/02/10 18:30:13;;;;;;;7.07;6.37;;;8.10;99.90;;;;;;5046617;28;20422;-69
2022/02/10 19:07:39;;;;;;;11.17;7.07;;;7.90;99.90;;;;;;5053304;28;20524;-70
2022/02/10 19:10:08;;;;;;;9.40;7.07;;;8.00;99.90;;;;;;5053206;28;20448;-67
2022/02/10 19:12:46;;;;;;;9.80;6.50;;;8.00;99.90;;;;;;5056723;28;20525;-69
2022/02/10 19:15:19;;;;;;;6.90;6.20;;;8.00;99.90;;;;;;5039177;28;20445;-69
2022/02/10 19:17:46;;;;;;;10.63;7.27;;;8.00;99.90;;;;;;5039507;28;20437;-69
2022/02/10 19:20:13;;;;;;;13.40;9.23;;;8.00;99.90;;;;;;5039813;28;20441;-68
2022/02/10 19:22:40;;;;;;;14.87;9.37;;;7.80;99.90;;;;;;5056393;28;20423;-68
2022/02/10 19:25:06;;;;;;;8.43;6.20;;;7.50;99.90;;;;;;5056029;28;20421;-68
2022/02/10 19:27:32;;;;;;;6.20;5.60;;;7.00;99.90;;;;;;5056304;28;20473;-69
2022/02/10 19:29:58;;;;;;;6.30;5.60;;;6.60;99.90;;;;;;5056066;28;20479;-68
2022/02/10 19:32:28;;;;;;;6.53;4.70;;;6.40;99.90;;;;;;5057884;28;20417;-69
2022/02/10 19:34:56;;;;;;;11.23;5.53;;;6.40;99.90;;;;;;5039313;28;20443;-69
2022/02/10 19:37:22;;;;;;;10.60;4.90;;;6.40;99.90;;;;;;5057720;28;20419;-69
2022/02/10 19:39:53;;;;;;;6.40;3.53;;;6.40;99.90;;;;;;5057803;28;20420;-68
2022/02/10 19:42:19;;;;;;;5.70;3.77;;;6.30;99.90;;;;;;5058687;28;20404;-69
2022/02/10 19:44:45;;;;;;;4.10;3.30;;;6.20;99.90;;;;;;5057497;28;20455;-69
2022/02/10 19:47:10;;;;;;;7.73;3.93;;;6.00;99.90;;;;;;5058600;28;20175;-68
2022/02/10 19:49:37;;;;;;;5.97;3.40;;;5.90;99.90;;;;;;5061095;28;20204;-69
2022/02/10 19:52:05;;;;;;;4.03;3.10;;;5.70;99.90;;;;;;5068549;28;20178;-69
2022/02/10 19:54:37;;;;;;;3.03;2.50;;;5.90;99.90;;;;;;5090076;28;20443;-69
2022/02/10 19:57:03;;;;;;;5.30;3.40;;;5.90;99.90;;;;;;5088281;28;20412;-69
2022/02/10 19:59:30;;;;;;;2.73;1.80;;;5.90;99.90;;;;;;5089854;28;20449;-69
2022/02/10 20:01:56;;;;;;;4.67;2.33;;;5.90;99.90;;;;;;5084820;28;20172;-69
2022/02/10 20:04:23;;;;;;;2.70;2.40;;;5.70;99.90;;;;;;5076060;28;20459;-68
2022/02/10 20:06:49;;;;;;;3.50;2.40;;;5.50;99.90;;;;;;5078787;28;20408;-68
2022/02/10 20:09:16;;;;;;;5.63;2.50;;;5.50;99.90;;;;;;5083745;28;20458;-68
2022/02/10 20:11:42;;;;;;;4.17;3.00;;;5.40;99.90;;;;;;5089527;28;20415;-69
2022/02/10 20:14:08;;;;;;;5.40;3.53;;;5.40;99.90;;;;;;5084600;28;20439;-69
2022/02/10 20:16:33;;;;;;;4.67;2.87;;;5.40;99.90;;;;;;5066288;28;20435;-67
2022/02/10 20:19:01;;;;;;;4.33;3.70;;;5.50;99.90;;;;;;5046465;28;20170;-68
2022/02/10 20:21:29;;;;;;;4.70;3.23;;;5.60;99.90;;;;;;5059518;28;20166;-67
2022/02/10 20:23:54;;;;;;;4.77;3.10;;;5.80;99.90;;;;;;5055452;28;20894;-68
2022/02/10 20:26:20;;;;;;;4.90;4.00;;;5.90;99.90;;;;;;5055596;28;20510;-69
2022/02/10 20:28:45;;;;;;;4.43;4.03;;;6.00;99.90;;;;;;5055761;28;20193;-69
2022/02/10 20:31:11;;;;;;;6.63;4.30;;;6.00;99.90;;;;;;5055286;28;20235;-69
2022/02/10 20:33:37;;;;;;;8.10;3.90;;;6.10;99.90;;;;;;5054808;28;20166;-68
2022/02/10 20:36:04;;;;;;;8.87;4.87;;;6.20;99.90;;;;;;5037024;28;20799;-69
2022/02/10 20:38:33;;;;;;;5.70;4.70;;;6.30;99.90;;;;;;5054860;28;20880;-69
2022/02/10 20:41:02;;;;;;;4.47;4.10;;;6.30;99.90;;;;;;5055050;28;20432;-68
2022/02/10 20:43:28;;;;;;;8.50;4.10;;;6.20;99.90;;;;;;5037009;28;20431;-69
2022/02/10 20:46:00;;;;;;;5.37;3.83;;;6.20;99.90;;;;;;5055562;28;20459;-69
2022/02/10 20:48:29;;;;;;;5.20;4.23;;;5.90;99.90;;;;;;5055431;28;20448;-69
2022/02/10 20:50:57;;;;;;;4.83;4.13;;;6.00;99.90;;;;;;5054920;28;20863;-69
2022/02/10 20:53:28;;;;;;;8.20;4.70;;;6.10;99.90;;;;;;5036463;28;20423;-69
2022/02/10 20:56:00;;;;;;;6.37;3.77;;;6.10;99.90;;;;;;5054689;28;20411;-69
2022/02/10 20:58:28;;;;;;;5.83;3.97;;;6.00;99.90;;;;;;5055376;28;20400;-69
2022/02/10 21:00:58;;;;;;;4.70;3.80;;;6.00;99.90;;;;;;5039908;28;20416;-69
2022/02/10 21:03:27;;;;;;;3.40;3.10;;;6.10;99.90;;;;;;5056159;28;20443;-68
2022/02/10 21:06:02;;;;;;;4.80;3.63;;;6.20;99.90;;;;;;5054042;22;20977;-67
2022/02/10 21:09:05;;;;;;;5.37;4.43;;;6.00;99.90;;;;;;4996414;28;20489;-68
2022/02/10 21:11:22;;;;;;;6.37;4.50;;;5.80;99.90;;;;;;5027697;28;20418;-66
2022/02/10 21:13:48;;;;;;;6.00;4.83;;;5.60;99.90;;;;;;5032172;28;20400;-68
2022/02/10 21:16:14;;;;;;;4.70;4.10;;;5.50;99.90;;;;;;5032341;28;20803;-67
2022/02/10 21:18:41;;;;;;;8.00;5.20;;;5.20;99.90;;;;;;5032409;28;20182;-67
2022/02/10 21:21:12;;;;;;;7.77;4.23;;;5.00;99.90;;;;;;5033063;28;20227;-68
2022/02/10 21:23:46;;;;;;;5.90;4.40;;;4.90;99.90;;;;;;5032108;28;20413;-68
2022/02/10 21:26:15;;;;;;;4.97;4.30;;;4.90;99.90;;;;;;5032224;28;20828;-67
2022/02/10 21:28:42;;;;;;;4.77;4.30;;;4.70;99.90;;;;;;5032200;28;20823;-68
2022/02/10 21:31:09;;;;;;;5.90;3.73;;;4.70;99.90;;;;;;5033060;28;20419;-69
2022/02/10 21:38:30;;;;;;;4.83;3.77;;;4.80;99.90;;;;;;5032293;28;20399;-69
2022/02/10 21:57:21;;;;;;;3.90;3.50;;;5.10;99.90;;;;;;5051915;28;20858;-69
2022/02/10 22:00:13;;;;;;;6.30;4.87;;;4.90;99.90;;;;;;5052043;28;20881;-69
2022/02/10 22:06:17;;;;;;;4.13;3.83;;;4.60;99.90;;;;;;5011156;28;20524;-67
2022/02/10 22:11:12;;;;;;;6.23;4.03;;;4.50;99.90;;;;;;5011691;28;20440;-68
2022/02/10 22:18:59;;;;;;;2.63;2.43;;;4.90;99.90;;;;;;5031229;28;20806;-68
2022/02/10 22:21:34;;;;;;;2.73;2.53;;;5.10;99.90;;;;;;5031138;28;20451;-69
2022/02/10 22:24:03;;;;;;;4.93;3.30;;;5.10;99.90;;;;;;5031560;28;20870;-68
2022/02/10 22:26:29;;;;;;;2.77;2.50;;;5.20;99.90;;;;;;5031419;28;20460;-69
2022/02/10 22:29:07;;;;;;;2.53;2.33;;;5.20;99.90;;;;;;5013421;28;20449;-69
2022/02/10 22:34:24;;;;;;;5.30;2.67;;;5.30;99.90;;;;;;5028600;28;20410;-68
2022/02/10 22:36:56;;;;;;;3.17;2.27;;;5.40;99.90;;;;;;5030076;28;20781;-68
2022/02/10 22:39:21;;;;;;;3.57;2.90;;;5.40;99.90;;;;;;5042948;28;20548;-70
2022/02/10 22:41:47;;;;;;;5.30;2.90;;;5.40;99.90;;;;;;5048850;28;20823;-68
2022/02/10 22:44:13;;;;;;;5.70;3.30;;;5.50;99.90;;;;;;5049310;28;20182;-68
2022/02/10 22:46:39;;;;;;;3.67;2.80;;;5.60;99.90;;;;;;5053267;28;20170;-69
2022/02/10 22:49:05;;;;;;;3.63;2.40;;;5.60;99.90;;;;;;5052914;28;20582;-69
2022/02/10 22:51:33;;;;;;;3.20;2.40;;;5.60;99.90;;;;;;5054827;28;20514;-69
2022/02/10 22:54:00;;;;;;;3.47;2.50;;;5.70;99.90;;;;;;5054603;28;20405;-68
2022/02/10 22:56:29;;;;;;;2.70;2.27;;;5.60;99.90;;;;;;5054510;28;20415;-69
2022/02/10 22:58:57;;;;;;;2.20;1.70;;;5.70;99.90;;;;;;5053402;28;20834;-68
2022/02/10 23:01:23;;;;;;;3.73;2.03;;;5.70;99.90;;;;;;5015096;28;20417;-68
2022/02/10 23:03:49;;;;;;;2.50;1.80;;;5.60;99.90;;;;;;5015014;28;20418;-68
2022/02/10 23:06:15;;;;;;;2.50;1.73;;;5.60;99.90;;;;;;5014569;28;20454;-67
2022/02/10 23:08:42;;;;;;;1.73;1.63;;;5.50;99.90;;;;;;5015172;28;20202;-68
2022/02/10 23:11:11;;;;;;;1.90;1.80;;;5.50;99.90;;;;;;5030373;28;20900;-68
2022/02/10 23:13:38;;;;;;;2.07;1.83;;;5.50;99.90;;;;;;5034062;28;20494;-69
2022/02/10 23:16:05;;;;;;;4.10;2.70;;;5.40;99.90;;;;;;5034565;28;20610;-68
2022/02/10 23:18:33;;;;;;;2.73;2.40;;;5.30;99.90;;;;;;5033937;28;20409;-68
2022/02/10 23:21:01;;;;;;;5.77;2.53;;;5.20;99.90;;;;;;5035414;28;20417;-69
2022/02/10 23:23:28;;;;;;;5.43;3.03;;;5.30;99.90;;;;;;5034018;28;20416;-68
2022/02/10 23:25:56;;;;;;;2.70;2.50;;;5.30;99.90;;;;;;5034228;28;20860;-68
2022/02/10 23:28:25;;;;;;;3.57;3.27;;;5.40;99.90;;;;;;5033999;28;20470;-68
2022/02/10 23:30:52;;;;;;;3.67;2.83;;;5.40;99.90;;;;;;5035040;28;20492;-69
2022/02/10 23:33:37;;;;;;;3.10;2.90;;;5.40;99.90;;;;;;5014078;28;20470;-69
2022/02/10 23:39:05;;;;;;;4.20;3.10;;;5.50;99.90;;;;;;5014028;28;20415;-68
2022/02/10 23:44:12;;;;;;;4.03;3.50;;;5.30;99.90;;;;;;5042342;28;20456;-69
2022/02/10 23:46:40;;;;;;;4.30;4.00;;;5.40;99.90;;;;;;5053539;28;20772;-68
2022/02/10 23:49:06;;;;;;;5.03;4.00;;;5.40;99.90;;;;;;5027976;28;20513;-69
2022/02/10 23:51:36;;;;;;;4.03;3.60;;;5.40;99.90;;;;;;5027890;28;20964;-69
2022/02/10 23:54:03;;;;;;;8.53;4.30;;;5.40;99.90;;;;;;5031941;28;20483;-68
2022/02/10 23:56:34;;;;;;;4.93;4.30;;;5.30;99.90;;;;;;5031336;28;20438;-68
2022/02/10 23:59:09;;;;;;;4.50;4.10;;;5.30;99.90;;;;;;5019706;28;20551;-69
